createdAt,value
2022-12-01T00:00:16.170Z,102315.09
2022-12-01T00:01:19.769Z,102316.19
2022-12-01T00:02:22.282Z,102320.41
2022-12-01T00:03:26.073Z,102315.22
2022-12-01T00:04:28.843Z,102312.59
2022-12-01T00:05:32.433Z,102317.88
2022-12-01T00:06:35.157Z,102307.66
2022-12-01T00:07:39.006Z,102319.69
2022-12-01T00:09:03.252Z,102318.84
2022-12-01T00:10:25.499Z,102312.72
2022-12-01T00:11:27.948Z,102323.31
2022-12-01T00:12:32.805Z,102314.50
2022-12-01T00:13:35.517Z,102315.47
2022-12-01T00:14:38.877Z,102323.31
2022-12-01T00:15:41.339Z,102321.59
2022-12-01T00:16:45.005Z,102320.66
2022-12-01T00:17:47.950Z,102323.31
2022-12-01T00:18:51.748Z,102316.31
2022-12-01T00:19:55.101Z,102316.19
2022-12-01T00:20:57.599Z,102313.53
2022-12-01T00:22:01.206Z,102309.09
2022-12-01T00:23:03.678Z,102312.59
2022-12-01T00:24:09.016Z,102311.88
2022-12-01T00:25:13.349Z,102311.75
2022-12-01T00:26:16.679Z,102309.94
2022-12-01T00:27:20.054Z,102314.25
2022-12-01T00:28:24.110Z,102317.75
2022-12-01T00:29:28.952Z,102315.22
2022-12-01T00:30:31.306Z,102313.53
2022-12-01T00:31:34.586Z,102310.88
2022-12-01T00:32:36.981Z,102313.53
2022-12-01T00:33:40.747Z,102312.00
2022-12-01T00:34:42.879Z,102308.25
2022-12-01T00:35:46.003Z,102305.59
2022-12-01T00:36:48.181Z,102304.78
2022-12-01T00:37:51.366Z,102318.84
2022-12-01T00:38:54.805Z,102309.22
2022-12-01T00:39:58.588Z,102312.72
2022-12-01T00:41:00.812Z,102309.22
2022-12-01T00:42:05.458Z,102318.84
2022-12-01T00:43:09.644Z,102311.00
2022-12-01T00:44:14.338Z,102308.38
2022-12-01T00:45:16.349Z,102310.16
2022-12-01T00:46:20.075Z,102305.72
2022-12-01T00:47:22.405Z,102308.38
2022-12-01T00:48:25.925Z,102305.84
2022-12-01T00:49:27.972Z,102308.50
2022-12-01T00:50:31.061Z,102310.16
2022-12-01T00:51:33.080Z,102312.81
2022-12-01T00:52:36.159Z,102310.16
2022-12-01T00:53:38.239Z,102307.66
2022-12-01T00:54:41.460Z,102319.09
2022-12-01T00:55:43.468Z,102312.81
2022-12-01T00:56:46.549Z,102320.75
2022-12-01T00:57:48.614Z,102312.81
2022-12-01T00:58:51.659Z,102312.81
2022-12-01T00:59:55.065Z,102319.94
2022-12-01T01:00:59.573Z,102324.38
2022-12-01T01:02:01.939Z,102347.22
2022-12-01T01:03:05.259Z,102319.09
2022-12-01T01:04:07.486Z,102327.03
2022-12-01T01:05:11.007Z,102329.69
2022-12-01T01:06:13.992Z,102327.03
2022-12-01T01:07:17.169Z,102329.81
2022-12-01T01:08:19.384Z,102340.28
2022-12-01T01:09:22.448Z,102328.00
2022-12-01T01:10:24.452Z,102334.97
2022-12-01T01:11:28.484Z,102334.97
2022-12-01T01:12:30.581Z,102338.59
2022-12-01T01:13:34.305Z,102334.13
2022-12-01T01:14:37.357Z,102330.66
2022-12-01T01:15:41.644Z,102339.41
2022-12-01T01:16:45.412Z,102336.91
2022-12-01T01:17:47.456Z,102341.25
2022-12-01T01:18:50.843Z,102341.25
2022-12-01T01:19:52.944Z,102341.25
2022-12-01T01:20:57.594Z,102338.59
2022-12-01T01:21:59.570Z,102339.53
2022-12-01T01:23:02.625Z,102347.38
2022-12-01T01:24:05.843Z,102346.53
2022-12-01T01:25:09.660Z,102350.00
2022-12-01T01:26:14.407Z,102345.09
2022-12-01T01:27:17.582Z,102346.53
2022-12-01T01:28:19.918Z,102343.16
2022-12-01T01:29:23.066Z,102343.16
2022-12-01T01:30:25.209Z,102342.19
2022-12-01T01:31:31.825Z,102340.53
2022-12-01T01:32:34.043Z,102344.84
2022-12-01T01:33:37.766Z,102339.53
2022-12-01T01:34:39.796Z,102341.38
2022-12-01T01:35:42.825Z,102338.72
2022-12-01T01:36:44.977Z,102344.84
2022-12-01T01:37:50.016Z,102338.59
2022-12-01T01:38:53.359Z,102339.41
2022-12-01T01:39:56.386Z,102334.97
2022-12-01T01:40:58.413Z,102337.63
2022-12-01T01:42:01.550Z,102337.63
2022-12-01T01:43:13.279Z,102338.47
2022-12-01T01:44:55.831Z,102337.63
2022-12-01T01:45:57.935Z,102338.47
2022-12-01T01:47:03.727Z,102336.66
2022-12-01T01:48:05.959Z,102335.81
2022-12-01T01:49:12.465Z,102338.72
2022-12-01T01:50:18.539Z,102345.56
2022-12-01T01:51:27.923Z,102345.56
2022-12-01T01:52:30.376Z,102343.91
2022-12-01T01:53:33.629Z,102343.03
2022-12-01T01:54:39.644Z,102339.69
2022-12-01T01:55:42.701Z,102338.81
2022-12-01T01:56:46.444Z,102338.00
2022-12-01T01:57:49.597Z,102335.47
2022-12-01T01:58:53.314Z,102344.38
2022-12-01T02:00:00.255Z,102339.94
2022-12-01T02:01:02.842Z,102345.34
2022-12-01T02:02:09.162Z,102348.00
2022-12-01T02:03:15.594Z,102341.84
2022-12-01T02:04:20.416Z,102349.91
2022-12-01T02:05:24.924Z,102352.56
2022-12-01T02:06:28.209Z,102348.25
2022-12-01T02:07:30.393Z,102342.97
2022-12-01T02:08:36.559Z,102342.97
2022-12-01T02:09:38.604Z,102346.53
2022-12-01T02:10:58.136Z,102344.88
2022-12-01T02:12:12.471Z,102349.19
2022-12-01T02:13:25.210Z,102344.88
2022-12-01T02:14:43.918Z,102341.50
2022-12-01T02:15:56.844Z,102344.88
2022-12-01T02:17:05.039Z,102345.81
2022-12-01T02:18:22.462Z,102344.16
2022-12-01T02:19:55.945Z,102341.50
2022-12-01T02:21:26.676Z,102338.97
2022-12-01T02:22:39.931Z,102344.03
2022-12-01T02:24:09.240Z,102352.09
2022-12-01T02:25:22.251Z,102349.44
2022-12-01T02:26:39.501Z,102345.94
2022-12-01T02:28:03.885Z,102347.78
2022-12-01T02:29:50.644Z,102346.06
2022-12-01T02:30:58.162Z,102348.72
2022-12-01T02:32:12.647Z,102343.56
2022-12-01T02:33:19.434Z,102344.41
2022-12-01T02:34:28.796Z,102351.50
2022-12-01T02:35:40.885Z,102347.06
2022-12-01T02:36:49.329Z,102344.41
2022-12-01T02:38:02.691Z,102347.06
2022-12-01T02:39:10.577Z,102346.06
2022-12-01T02:40:18.970Z,102344.41
2022-12-01T02:41:29.559Z,102346.19
2022-12-01T02:42:53.617Z,102344.41
2022-12-01T02:44:04.469Z,102346.94
2022-12-01T02:45:12.028Z,102339.97
2022-12-01T02:46:23.641Z,102347.78
2022-12-01T02:47:25.948Z,102345.13
2022-12-01T02:48:32.522Z,102346.94
2022-12-01T02:49:39.372Z,102341.63
2022-12-01T02:50:44.621Z,102342.59
2022-12-01T02:51:52.069Z,102354.03
2022-12-01T02:52:54.548Z,102337.06
2022-12-01T02:53:59.804Z,102347.91
2022-12-01T02:55:01.882Z,102352.34
2022-12-01T02:56:08.829Z,102348.84
2022-12-01T02:57:12.372Z,102341.75
2022-12-01T02:58:16.100Z,102346.06
2022-12-01T02:59:18.263Z,102340.06
2022-12-01T03:00:21.550Z,102347.06
2022-12-01T03:01:41.453Z,102347.06
2022-12-01T03:02:55.030Z,102348.72
2022-12-01T03:04:11.911Z,102343.56
2022-12-01T03:05:22.920Z,102348.72
2022-12-01T03:06:37.400Z,102342.59
2022-12-01T03:07:57.576Z,102345.25
2022-12-01T03:09:10.317Z,102346.94
2022-12-01T03:10:21.662Z,102341.63
2022-12-01T03:11:34.802Z,102348.59
2022-12-01T03:12:45.570Z,102345.13
2022-12-01T03:13:54.056Z,102345.13
2022-12-01T03:15:05.617Z,102341.50
2022-12-01T03:16:12.643Z,102345.13
2022-12-01T03:17:25.442Z,102332.38
2022-12-01T03:18:36.195Z,102332.84
2022-12-01T03:19:42.853Z,102342.47
2022-12-01T03:20:53.203Z,102342.47
2022-12-01T03:22:01.360Z,102338.97
2022-12-01T03:23:09.502Z,102339.84
2022-12-01T03:24:15.662Z,102334.53
2022-12-01T03:25:20.070Z,102347.78
2022-12-01T03:26:25.886Z,102341.50
2022-12-01T03:27:31.804Z,102338.97
2022-12-01T03:28:39.361Z,102334.53
2022-12-01T03:29:45.253Z,102346.81
2022-12-01T03:30:52.170Z,102336.94
2022-12-01T03:31:59.117Z,102341.25
2022-12-01T03:33:09.958Z,102335.97
2022-12-01T03:34:16.755Z,102347.41
2022-12-01T03:35:27.605Z,102333.56
2022-12-01T03:36:37.070Z,102350.03
2022-12-01T03:37:44.435Z,102340.31
2022-12-01T03:38:52.295Z,102348.25
2022-12-01T03:40:00.484Z,102346.53
2022-12-01T03:41:09.527Z,102353.53
2022-12-01T03:42:17.790Z,102346.53
2022-12-01T03:43:25.072Z,102345.81
2022-12-01T03:44:36.856Z,102349.31
2022-12-01T03:45:47.296Z,102342.00
2022-12-01T03:46:56.317Z,102346.81
2022-12-01T03:47:58.813Z,102347.66
2022-12-01T03:49:05.665Z,102353.75
2022-12-01T03:50:13.355Z,102352.09
2022-12-01T03:51:22.488Z,102355.72
2022-12-01T03:52:33.936Z,102347.78
2022-12-01T03:53:48.562Z,102340.91
2022-12-01T03:55:01.825Z,102352.22
2022-12-01T03:56:08.166Z,102348.72
2022-12-01T03:57:14.476Z,102355.72
2022-12-01T03:58:21.625Z,102347.06
2022-12-01T03:59:25.807Z,102345.25
2022-12-01T04:00:29.823Z,102347.06
2022-12-01T04:01:33.453Z,102340.31
2022-12-01T04:02:38.074Z,102348.00
2022-12-01T04:03:40.467Z,102347.19
2022-12-01T04:04:45.078Z,102342.84
2022-12-01T04:05:47.206Z,102357.88
2022-12-01T04:06:51.461Z,102338.63
2022-12-01T04:07:54.011Z,102346.56
2022-12-01T04:08:57.704Z,102339.13
2022-12-01T04:09:59.857Z,102351.16
2022-12-01T04:11:26.050Z,102345.13
2022-12-01T04:12:30.606Z,102346.97
2022-12-01T04:13:33.103Z,102343.47
2022-12-01T04:14:35.166Z,102340.81
2022-12-01T04:15:38.447Z,102344.41
2022-12-01T04:16:43.879Z,102337.09
2022-12-01T04:17:49.323Z,102338.75
2022-12-01T04:18:54.153Z,102348.03
2022-12-01T04:19:59.110Z,102349.00
2022-12-01T04:21:01.250Z,102344.53
2022-12-01T04:22:04.870Z,102338.41
2022-12-01T04:23:06.957Z,102346.34
2022-12-01T04:24:10.403Z,102350.69
2022-12-01T04:25:12.592Z,102349.81
2022-12-01T04:26:16.084Z,102342.72
2022-12-01T04:27:19.575Z,102347.44
2022-12-01T04:28:21.663Z,102348.88
2022-12-01T04:29:25.093Z,102345.63
2022-12-01T04:30:27.161Z,102358.38
2022-12-01T04:31:30.497Z,102347.78
2022-12-01T04:32:37.185Z,102341.19
2022-12-01T04:33:40.303Z,102353.91
2022-12-01T04:34:42.663Z,102352.25
2022-12-01T04:35:47.193Z,102348.28
2022-12-01T04:36:49.299Z,102351.53
2022-12-01T04:37:52.490Z,102361.25
2022-12-01T04:38:54.588Z,102357.88
2022-12-01T04:39:57.717Z,102355.38
2022-12-01T04:40:59.808Z,102334.47
2022-12-01T04:42:02.991Z,102363.31
2022-12-01T04:43:05.078Z,102358.88
2022-12-01T04:44:08.179Z,102355.38
2022-12-01T04:45:10.981Z,102358.75
2022-12-01T04:46:14.191Z,102356.22
2022-12-01T04:47:16.291Z,102354.41
2022-12-01T04:48:19.353Z,102353.69
2022-12-01T04:49:22.339Z,102350.31
2022-12-01T04:50:25.461Z,102361.50
2022-12-01T04:51:28.915Z,102358.88
2022-12-01T04:52:35.237Z,102354.41
2022-12-01T04:53:38.020Z,102355.38
2022-12-01T04:54:41.269Z,102362.38
2022-12-01T04:55:43.339Z,102361.50
2022-12-01T04:56:46.748Z,102350.94
2022-12-01T04:57:48.984Z,102360.53
2022-12-01T04:58:52.132Z,102359.59
2022-12-01T04:59:54.223Z,102359.47
2022-12-01T05:01:02.993Z,102353.31
2022-12-01T05:02:05.279Z,102350.53
2022-12-01T05:03:13.526Z,102347.44
2022-12-01T05:04:17.045Z,102302.84
2022-12-01T05:05:20.247Z,102355.59
2022-12-01T05:06:24.594Z,102348.75
2022-12-01T05:07:29.109Z,102352.25
2022-12-01T05:08:31.378Z,102360.88
2022-12-01T05:09:34.578Z,102360.88
2022-12-01T05:10:36.833Z,102359.09
2022-12-01T05:11:39.964Z,102361.84
2022-12-01T05:12:42.077Z,102363.53
2022-12-01T05:13:47.336Z,102358.63
2022-12-01T05:14:49.583Z,102362.59
2022-12-01T05:15:52.950Z,102362.72
2022-12-01T05:16:56.040Z,102367.03
2022-12-01T05:17:59.377Z,102368.69
2022-12-01T05:19:21.032Z,102367.88
2022-12-01T05:20:44.424Z,102370.41
2022-12-01T05:21:49.374Z,102369.56
2022-12-01T05:23:10.771Z,102370.41
2022-12-01T05:24:16.764Z,102369.44
2022-12-01T05:25:19.081Z,102372.06
2022-12-01T05:26:22.194Z,102372.06
2022-12-01T05:27:24.307Z,102363.19
2022-12-01T05:28:27.642Z,102365.84
2022-12-01T05:29:33.006Z,102370.16
2022-12-01T05:30:35.110Z,102371.81
2022-12-01T05:31:39.747Z,102371.81
2022-12-01T05:32:41.997Z,102370.16
2022-12-01T05:33:45.092Z,102367.50
2022-12-01T05:34:47.195Z,102371.13
2022-12-01T05:35:51.058Z,102372.91
2022-12-01T05:36:54.244Z,102376.53
2022-12-01T05:37:57.731Z,102374.00
2022-12-01T05:39:00.875Z,102375.69
2022-12-01T05:40:03.065Z,102371.72
2022-12-01T05:41:06.531Z,102380.38
2022-12-01T05:42:08.624Z,102382.19
2022-12-01T05:43:11.726Z,102383.16
2022-12-01T05:44:14.860Z,102374.50
2022-12-01T05:45:17.245Z,102379.78
2022-12-01T05:46:20.641Z,102376.28
2022-12-01T05:47:22.960Z,102378.13
2022-12-01T05:48:26.496Z,102373.75
2022-12-01T05:49:28.635Z,102375.34
2022-12-01T05:50:32.154Z,102374.63
2022-12-01T05:51:34.247Z,102374.63
2022-12-01T05:52:37.919Z,102376.41
2022-12-01T05:53:41.770Z,102378.13
2022-12-01T05:54:44.859Z,102375.59
2022-12-01T05:55:51.303Z,102378.13
2022-12-01T05:56:54.395Z,102379.78
2022-12-01T05:57:56.527Z,102374.50
2022-12-01T05:58:59.669Z,102378.94
2022-12-01T06:00:01.872Z,102378.13
2022-12-01T06:01:14.556Z,102386.88
2022-12-01T06:02:16.715Z,102387.72
2022-12-01T06:03:19.921Z,102384.22
2022-12-01T06:04:22.419Z,102381.59
2022-12-01T06:05:25.604Z,102392.88
2022-12-01T06:06:28.716Z,102382.31
2022-12-01T06:07:32.179Z,102382.31
2022-12-01T06:08:35.327Z,102385.81
2022-12-01T06:09:38.847Z,102380.50
2022-12-01T06:10:42.095Z,102381.25
2022-12-01T06:11:44.252Z,102376.06
2022-12-01T06:12:47.384Z,102389.19
2022-12-01T06:13:50.512Z,102392.75
2022-12-01T06:14:52.614Z,102384.00
2022-12-01T06:16:00.531Z,102392.75
2022-12-01T06:17:02.685Z,102384.00
2022-12-01T06:18:05.907Z,102404.31
2022-12-01T06:19:08.066Z,102393.75
2022-12-01T06:20:12.819Z,102391.94
2022-12-01T06:21:14.888Z,102391.09
2022-12-01T06:22:18.039Z,102399.03
2022-12-01T06:23:20.164Z,102393.88
2022-12-01T06:24:23.286Z,102402.63
2022-12-01T06:25:26.874Z,102397.34
2022-12-01T06:26:30.160Z,102395.66
2022-12-01T06:27:32.376Z,102395.91
2022-12-01T06:28:35.846Z,102403.59
2022-12-01T06:29:42.101Z,102394.00
2022-12-01T06:30:45.726Z,102400.09
2022-12-01T06:31:47.933Z,102407.22
2022-12-01T06:32:51.168Z,102406.25
2022-12-01T06:33:54.320Z,102402.63
2022-12-01T06:34:56.435Z,102398.19
2022-12-01T06:36:00.428Z,102399.03
2022-12-01T06:37:02.611Z,102404.22
2022-12-01T06:38:06.206Z,102404.22
2022-12-01T06:39:10.113Z,102409.38
2022-12-01T06:40:13.795Z,102405.75
2022-12-01T06:41:18.364Z,102409.38
2022-12-01T06:42:20.580Z,102401.44
2022-12-01T06:43:23.668Z,102404.09
2022-12-01T06:44:25.851Z,102409.13
2022-12-01T06:45:29.460Z,102407.47
2022-12-01T06:46:31.735Z,102404.81
2022-12-01T06:47:34.915Z,102411.78
2022-12-01T06:48:38.040Z,102411.78
2022-12-01T06:49:40.129Z,102415.28
2022-12-01T06:50:43.344Z,102413.47
2022-12-01T06:51:46.302Z,102406.72
2022-12-01T06:52:49.626Z,102410.72
2022-12-01T06:53:54.922Z,102410.59
2022-12-01T06:54:58.706Z,102400.25
2022-12-01T06:56:01.325Z,102413.09
2022-12-01T06:57:06.434Z,102401.91
2022-12-01T06:58:08.852Z,102412.00
2022-12-01T06:59:12.259Z,102412.97
2022-12-01T07:00:15.574Z,102423.56
2022-12-01T07:01:19.958Z,102418.28
2022-12-01T07:02:23.266Z,102417.28
2022-12-01T07:03:25.332Z,102418.28
2022-12-01T07:04:28.496Z,102421.78
2022-12-01T07:05:30.627Z,102419.25
2022-12-01T07:06:34.100Z,102425.47
2022-12-01T07:07:37.412Z,102433.56
2022-12-01T07:08:40.565Z,102422.25
2022-12-01T07:09:42.758Z,102419.72
2022-12-01T07:10:45.884Z,102426.84
2022-12-01T07:11:48.036Z,102423.34
2022-12-01T07:12:52.510Z,102430.69
2022-12-01T07:13:55.940Z,102431.66
2022-12-01T07:14:59.143Z,102430.78
2022-12-01T07:16:01.911Z,102430.06
2022-12-01T07:17:05.325Z,102424.78
2022-12-01T07:18:07.501Z,102429.22
2022-12-01T07:19:10.785Z,102431.03
2022-12-01T07:20:13.147Z,102427.53
2022-12-01T07:21:16.936Z,102429.22
2022-12-01T07:22:20.099Z,102417.44
2022-12-01T07:23:22.214Z,102432.72
2022-12-01T07:24:25.318Z,102430.19
2022-12-01T07:25:27.423Z,102435.38
2022-12-01T07:26:30.616Z,102443.19
2022-12-01T07:27:32.713Z,102434.38
2022-12-01T07:28:37.262Z,102438.00
2022-12-01T07:29:39.351Z,102433.69
2022-12-01T07:30:42.563Z,102436.34
2022-12-01T07:31:45.832Z,102438.25
2022-12-01T07:32:49.239Z,102438.25
2022-12-01T07:33:52.593Z,102437.66
2022-12-01T07:34:55.746Z,102440.91
2022-12-01T07:35:57.983Z,102446.31
2022-12-01T07:37:01.065Z,102437.53
2022-12-01T07:38:04.237Z,102436.66
2022-12-01T07:39:07.568Z,102444.59
2022-12-01T07:40:12.115Z,102440.28
2022-12-01T07:41:19.092Z,102438.50
2022-12-01T07:42:22.309Z,102432.72
2022-12-01T07:43:24.473Z,102439.31
2022-12-01T07:44:28.960Z,102439.31
2022-12-01T07:45:31.015Z,102448.97
2022-12-01T07:46:34.257Z,102439.19
2022-12-01T07:47:36.479Z,102445.22
2022-12-01T07:48:40.713Z,102439.94
2022-12-01T07:49:42.783Z,102444.97
2022-12-01T07:50:45.876Z,102438.75
2022-12-01T07:51:49.068Z,102443.06
2022-12-01T07:52:51.637Z,102443.91
2022-12-01T07:53:56.225Z,102463.03
2022-12-01T07:54:59.387Z,102447.88
2022-12-01T07:56:07.070Z,102451.34
2022-12-01T07:57:14.309Z,102457.50
2022-12-01T07:58:17.517Z,102449.69
2022-12-01T07:59:20.609Z,102454.97
2022-12-01T08:00:25.396Z,102451.47
2022-12-01T08:01:27.724Z,102450.06
2022-12-01T08:02:30.954Z,102458.47
2022-12-01T08:03:34.083Z,102458.47
2022-12-01T08:04:37.229Z,102460.16
2022-12-01T08:05:39.366Z,102453.41
2022-12-01T08:06:42.580Z,102460.03
2022-12-01T08:07:44.721Z,102460.88
2022-12-01T08:08:48.740Z,102459.91
2022-12-01T08:09:52.091Z,102467.84
2022-12-01T08:10:54.442Z,102463.41
2022-12-01T08:11:57.551Z,102465.19
2022-12-01T08:13:00.775Z,102464.38
2022-12-01T08:14:03.932Z,102461.59
2022-12-01T08:15:07.109Z,102466.78
2022-12-01T08:16:14.819Z,102459.66
2022-12-01T08:17:18.026Z,102469.41
2022-12-01T08:18:20.215Z,102473.63
2022-12-01T08:19:23.437Z,102464.94
2022-12-01T08:20:26.659Z,102464.25
2022-12-01T08:21:30.014Z,102466.91
2022-12-01T08:22:32.528Z,102466.03
2022-12-01T08:23:36.006Z,102477.50
2022-12-01T08:24:38.048Z,102475.78
2022-12-01T08:25:41.125Z,102473.25
2022-12-01T08:26:43.252Z,102478.56
2022-12-01T08:27:46.932Z,102473.25
2022-12-01T08:28:49.109Z,102474.09
2022-12-01T08:29:52.165Z,102467.03
2022-12-01T08:30:55.722Z,102479.41
2022-12-01T08:32:00.588Z,102479.41
2022-12-01T08:33:02.713Z,102470.50
2022-12-01T08:34:07.016Z,102472.19
2022-12-01T08:35:09.805Z,102467.72
2022-12-01T08:36:12.881Z,102479.16
2022-12-01T08:37:16.524Z,102470.25
2022-12-01T08:38:19.503Z,102471.09
2022-12-01T08:39:22.587Z,102463.03
2022-12-01T08:40:24.647Z,102467.38
2022-12-01T08:41:28.508Z,102471.69
2022-12-01T08:42:31.034Z,102476.88
2022-12-01T08:43:56.700Z,102472.53
2022-12-01T08:44:57.188Z,102468.06
2022-12-01T08:46:00.295Z,102472.66
2022-12-01T08:47:05.175Z,102474.47
2022-12-01T08:48:08.325Z,102471.09
2022-12-01T08:49:13.832Z,102476.38
2022-12-01T08:50:17.395Z,102475.53
2022-12-01T08:51:20.370Z,102481.81
2022-12-01T08:52:23.714Z,102476.63
2022-12-01T08:53:28.230Z,102476.75
2022-12-01T08:54:33.258Z,102482.91
2022-12-01T08:55:35.409Z,102474.09
2022-12-01T08:56:41.402Z,102483.00
2022-12-01T08:57:43.540Z,102484.69
2022-12-01T08:58:46.913Z,102494.31
2022-12-01T08:59:50.421Z,102486.25
2022-12-01T09:00:53.820Z,102483.59
2022-12-01T09:01:57.491Z,102487.09
2022-12-01T09:03:02.535Z,102485.44
2022-12-01T09:04:09.350Z,102486.38
2022-12-01T09:05:12.435Z,102481.94
2022-12-01T09:06:20.119Z,102482.06
2022-12-01T09:07:26.559Z,102473.38
2022-12-01T09:08:32.240Z,102486.63
2022-12-01T09:09:36.466Z,102481.31
2022-12-01T09:10:38.600Z,102483.13
2022-12-01T09:11:43.661Z,102487.47
2022-12-01T09:12:46.839Z,102477.69
2022-12-01T09:13:54.708Z,102481.06
2022-12-01T09:14:58.052Z,102488.06
2022-12-01T09:16:02.103Z,102480.81
2022-12-01T09:17:05.249Z,102479.75
2022-12-01T09:18:08.639Z,102484.94
2022-12-01T09:19:22.223Z,102478.56
2022-12-01T09:20:28.273Z,102473.03
2022-12-01T09:21:32.880Z,102477.22
2022-12-01T09:22:34.933Z,102480.59
2022-12-01T09:23:39.553Z,102478.69
2022-12-01T09:24:42.645Z,102482.19
2022-12-01T09:25:44.752Z,102477.69
2022-12-01T09:26:47.823Z,102483.84
2022-12-01T09:27:50.881Z,102476.63
2022-12-01T09:28:55.093Z,102483.00
2022-12-01T09:29:58.214Z,102487.09
2022-12-01T09:31:05.439Z,102488.78
2022-12-01T09:32:08.578Z,102487.84
2022-12-01T09:33:12.831Z,102480.50
2022-12-01T09:34:18.548Z,102484.81
2022-12-01T09:35:23.419Z,102484.69
2022-12-01T09:36:27.430Z,102486.25
2022-12-01T09:37:30.480Z,102487.09
2022-12-01T09:38:34.852Z,102487.94
2022-12-01T09:39:37.873Z,102489.59
2022-12-01T09:40:42.642Z,102489.47
2022-12-01T09:41:48.326Z,102486.84
2022-12-01T09:42:50.674Z,102487.56
2022-12-01T09:43:59.166Z,102484.66
2022-12-01T09:45:04.981Z,102484.44
2022-12-01T09:46:13.310Z,102485.13
2022-12-01T09:47:19.955Z,102486.72
2022-12-01T09:48:30.545Z,102485.59
2022-12-01T09:49:42.751Z,102481.88
2022-12-01T09:50:45.901Z,102474.78
2022-12-01T09:51:48.916Z,102474.78
2022-12-01T09:52:56.918Z,102478.13
2022-12-01T09:54:02.067Z,102478.13
2022-12-01T09:55:12.725Z,102472.00
2022-12-01T09:56:22.210Z,102480.09
2022-12-01T09:57:31.886Z,102480.31
2022-12-01T09:58:35.636Z,102475.00
2022-12-01T09:59:43.163Z,102481.28
2022-12-01T10:00:47.140Z,102476.97
2022-12-01T10:01:54.690Z,102484.78
2022-12-01T10:03:02.525Z,102479.50
2022-12-01T10:04:13.094Z,102474.91
2022-12-01T10:05:20.158Z,102488.72
2022-12-01T10:06:30.141Z,102481.50
2022-12-01T10:07:37.683Z,102478.72
2022-12-01T10:08:45.172Z,102478.59
2022-12-01T10:09:53.623Z,102484.75
2022-12-01T10:11:02.767Z,102478.59
2022-12-01T10:12:13.765Z,102483.91
2022-12-01T10:13:20.220Z,102482.34
2022-12-01T10:14:23.358Z,102483.34
2022-12-01T10:15:37.275Z,102472.84
2022-12-01T10:16:47.996Z,102476.47
2022-12-01T10:17:56.959Z,102465.13
2022-12-01T10:19:06.544Z,102470.81
2022-12-01T10:20:18.740Z,102472.88
2022-12-01T10:21:36.658Z,102470.47
2022-12-01T10:23:05.433Z,102461.06
2022-12-01T10:24:28.664Z,102462.31
2022-12-01T10:25:42.837Z,102466.16
2022-12-01T10:26:52.720Z,102468.19
2022-12-01T10:28:08.381Z,102460.50
2022-12-01T10:29:24.067Z,102462.41
2022-12-01T10:30:27.712Z,102467.72
2022-12-01T10:31:40.011Z,102459.03
2022-12-01T10:32:52.380Z,102461.81
2022-12-01T10:34:02.729Z,102453.16
2022-12-01T10:35:05.168Z,102455.91
2022-12-01T10:36:11.563Z,102458.69
2022-12-01T10:37:19.844Z,102458.94
2022-12-01T10:38:27.719Z,102467.97
2022-12-01T10:39:35.552Z,102468.94
2022-12-01T10:40:38.350Z,102468.31
2022-12-01T10:41:42.324Z,102465.81
2022-12-01T10:42:46.199Z,102467.03
2022-12-01T10:43:53.326Z,102455.56
2022-12-01T10:44:58.691Z,102463.53
2022-12-01T10:46:06.998Z,102457.63
2022-12-01T10:47:19.648Z,102458.34
2022-12-01T10:48:23.059Z,102461.81
2022-12-01T10:49:37.219Z,102459.16
2022-12-01T10:50:41.057Z,102457.50
2022-12-01T10:51:51.655Z,102461.13
2022-12-01T10:52:53.809Z,102459.41
2022-12-01T10:54:01.083Z,102461.47
2022-12-01T10:55:24.881Z,102460.75
2022-12-01T10:56:28.627Z,102463.41
2022-12-01T10:57:33.124Z,102468.09
2022-12-01T10:58:47.903Z,102465.56
2022-12-01T10:59:53.809Z,102460.38
2022-12-01T11:01:00.016Z,102465.66
2022-12-01T11:02:06.451Z,102465.78
2022-12-01T11:03:21.860Z,102472.16
2022-12-01T11:04:45.525Z,102459.66
2022-12-01T11:05:53.893Z,102458.81
2022-12-01T11:06:58.842Z,102465.91
2022-12-01T11:08:02.418Z,102466.88
2022-12-01T11:09:06.813Z,102466.16
2022-12-01T11:10:19.041Z,102454.00
2022-12-01T11:11:32.097Z,102466.38
2022-12-01T11:12:34.965Z,102468.31
2022-12-01T11:13:38.354Z,102462.03
2022-12-01T11:14:46.014Z,102464.69
2022-12-01T11:15:52.610Z,102462.03
2022-12-01T11:16:57.148Z,102465.53
2022-12-01T11:18:02.458Z,102463.00
2022-12-01T11:19:25.454Z,102471.94
2022-12-01T11:20:34.105Z,102465.91
2022-12-01T11:21:47.415Z,102463.38
2022-12-01T11:22:52.893Z,102460.00
2022-12-01T11:24:00.519Z,102461.06
2022-12-01T11:25:11.752Z,102458.66
2022-12-01T11:26:21.729Z,102447.34
2022-12-01T11:27:29.481Z,102458.91
2022-12-01T11:28:36.557Z,102452.88
2022-12-01T11:29:42.130Z,102460.81
2022-12-01T11:30:45.123Z,102463.47
2022-12-01T11:31:53.815Z,102456.50
2022-12-01T11:33:00.527Z,102458.41
2022-12-01T11:34:05.794Z,102469.00
2022-12-01T11:35:18.845Z,102455.03
2022-12-01T11:36:32.018Z,102458.66
2022-12-01T11:38:27.735Z,102466.72
2022-12-01T11:39:28.062Z,102454.31
2022-12-01T11:40:34.149Z,102450.00
2022-12-01T11:41:40.567Z,102449.00
2022-12-01T11:42:49.772Z,102453.59
2022-12-01T11:44:01.143Z,102445.88
2022-12-01T11:45:19.665Z,102451.16
2022-12-01T11:46:31.545Z,102459.34
2022-12-01T11:47:34.938Z,102465.72
2022-12-01T11:48:37.096Z,102458.72
2022-12-01T11:49:47.240Z,102465.84
2022-12-01T11:51:06.794Z,102464.00
2022-12-01T11:52:31.195Z,102464.00
2022-12-01T11:53:36.359Z,102453.44
2022-12-01T11:54:56.302Z,102456.94
2022-12-01T11:56:16.307Z,102468.47
2022-12-01T11:57:33.722Z,102460.66
2022-12-01T11:58:38.157Z,102458.13
2022-12-01T11:59:41.504Z,102467.88
2022-12-01T12:00:51.167Z,102465.34
2022-12-01T12:02:15.174Z,102461.97
2022-12-01T12:03:25.944Z,102459.31
2022-12-01T12:04:43.740Z,102472.78
2022-12-01T12:06:39.051Z,102454.97
2022-12-01T12:07:41.017Z,102450.78
2022-12-01T12:09:04.364Z,102454.38
2022-12-01T12:10:24.200Z,102451.63
2022-12-01T12:11:37.996Z,102448.88
2022-12-01T12:12:55.903Z,102441.75
2022-12-01T12:14:20.924Z,102439.97
2022-12-01T12:15:34.864Z,102445.25
2022-12-01T12:16:52.275Z,102443.34
2022-12-01T12:18:10.722Z,102435.28
2022-12-01T12:19:34.288Z,102442.25
2022-12-01T12:20:56.022Z,102435.28
2022-12-01T12:23:59.946Z,102437.06
2022-12-01T12:25:20.433Z,102438.06
2022-12-01T12:26:28.705Z,102434.69
2022-12-01T12:27:43.645Z,102442.47
2022-12-01T12:29:17.845Z,102446.09
2022-12-01T12:30:24.257Z,102439.97
2022-12-01T12:31:36.265Z,102436.72
2022-12-01T12:32:53.444Z,102446.34
2022-12-01T12:34:14.360Z,102444.63
2022-12-01T12:35:24.454Z,102442.97
2022-12-01T12:36:40.995Z,102453.41
2022-12-01T12:37:53.756Z,102451.00
2022-12-01T12:39:10.842Z,102457.25